Time;durP1;ratioP1;P1;durP2;ratioP2;P2;SDS_P1;SDS_P2;PMS_P1;PMS_P2;Temp;Humidity;BMP_temperature;BMP_pressure;BME280_temperature;BME280_humidity;BME280_pressure;Samples;Min_cycle;Max_cycle;Signal;HPM_P1;HPM_P2
2023/06/07 03:01:08;;;;;;;92.10;87.23;;;11.30;99.90;;;;;;5621026;23;20244;-75
2023/06/07 03:03:35;;;;;;;68.23;64.57;;;11.30;99.90;;;;;;4988976;28;20195;-74
2023/06/07 03:06:02;;;;;;;69.30;65.63;;;11.30;99.90;;;;;;4984902;28;20236;-75
2023/06/07 03:08:28;;;;;;;116.07;109.93;;;11.30;99.90;;;;;;4985070;28;20684;-74
2023/06/07 03:10:54;;;;;;;115.57;109.50;;;11.20;99.90;;;;;;4957846;28;20211;-74
2023/06/07 03:13:20;;;;;;;108.40;102.57;;;11.20;99.90;;;;;;4971296;28;20197;-74
2023/06/07 03:15:45;;;;;;;14.17;13.27;;;11.20;99.90;;;;;;4971541;28;20189;-74
2023/06/07 03:18:15;;;;;;;81.07;76.70;;;11.10;99.90;;;;;;4969260;28;20193;-74
2023/06/07 03:20:44;;;;;;;83.27;78.90;;;11.10;99.90;;;;;;4954868;28;20767;-74
2023/06/07 03:23:10;;;;;;;85.60;81.10;;;11.10;99.90;;;;;;4967993;28;20205;-74
2023/06/07 03:25:37;;;;;;;66.07;62.57;;;11.10;99.90;;;;;;4973806;28;20196;-74
2023/06/07 03:28:03;;;;;;;74.77;70.67;;;11.10;99.90;;;;;;4956655;28;20205;-74
2023/06/07 03:30:29;;;;;;;72.67;68.83;;;11.10;99.90;;;;;;4951347;28;20211;-74
2023/06/07 03:32:55;;;;;;;73.23;69.23;;;11.10;99.90;;;;;;4967961;28;20200;-74
2023/06/07 03:35:20;;;;;;;119.43;113.10;;;11.20;99.90;;;;;;4974865;28;20197;-75
2023/06/07 03:37:46;;;;;;;116.00;109.80;;;11.10;99.90;;;;;;4974914;28;20243;-75
2023/06/07 03:40:12;;;;;;;124.07;117.43;;;11.20;99.90;;;;;;4966127;28;20181;-74
2023/06/07 03:42:39;;;;;;;89.30;84.40;;;11.20;99.90;;;;;;4957889;28;20748;-74
2023/06/07 03:45:05;;;;;;;30.13;28.50;;;11.20;99.90;;;;;;4974624;28;20662;-75
2023/06/07 03:47:32;;;;;;;15.77;14.70;;;11.20;99.90;;;;;;4950458;28;20235;-75
2023/06/07 03:49:58;;;;;;;16.30;15.37;;;11.30;99.90;;;;;;4960520;28;20312;-74
2023/06/07 03:52:24;;;;;;;12.77;11.87;;;11.30;99.90;;;;;;4974274;28;20641;-75
2023/06/07 03:54:50;;;;;;;13.67;12.67;;;11.30;99.90;;;;;;4974616;28;20193;-73
2023/06/07 03:57:15;;;;;;;12.37;11.13;;;11.30;99.90;;;;;;4973840;28;20602;-74
2023/06/07 03:59:41;;;;;;;12.17;11.27;;;11.40;99.90;;;;;;4972089;28;20227;-74
2023/06/07 04:02:07;;;;;;;13.40;12.50;;;11.40;99.90;;;;;;4969943;28;20283;-76
2023/06/07 04:04:33;;;;;;;13.23;12.23;;;11.50;99.90;;;;;;4972621;28;20189;-74
2023/06/07 04:07:01;;;;;;;12.77;11.73;;;11.60;99.90;;;;;;4973930;28;20396;-74
2023/06/07 04:09:26;;;;;;;40.57;37.87;;;11.50;99.90;;;;;;4972470;28;20236;-73
2023/06/07 04:11:52;;;;;;;34.33;32.33;;;11.60;99.90;;;;;;4974346;28;20209;-73
2023/06/07 04:14:18;;;;;;;13.87;12.87;;;11.60;99.90;;;;;;4973961;28;20751;-72
2023/06/07 04:16:44;;;;;;;17.90;16.80;;;11.70;99.90;;;;;;4943283;28;20688;-74
2023/06/07 04:19:10;;;;;;;16.73;15.63;;;11.80;99.90;;;;;;4967081;28;20189;-74
2023/06/07 04:21:36;;;;;;;17.13;16.03;;;11.80;99.90;;;;;;4973960;28;20209;-74
2023/06/07 04:24:04;;;;;;;18.17;16.97;;;12.00;99.90;;;;;;4956642;28;20731;-75
2023/06/07 04:26:31;;;;;;;36.73;34.63;;;12.10;99.90;;;;;;4956690;28;20836;-74
2023/06/07 04:29:00;;;;;;;20.33;19.03;;;12.20;99.90;;;;;;4973314;28;20692;-76
2023/06/07 04:31:34;;;;;;;13.60;12.60;;;12.20;99.90;;;;;;4973437;28;20212;-75
2023/06/07 04:34:04;;;;;;;9.77;8.80;;;12.30;99.90;;;;;;4973757;28;20270;-76
2023/06/07 04:36:30;;;;;;;22.83;21.07;;;12.50;99.90;;;;;;4956587;28;20196;-75
2023/06/07 04:38:57;;;;;;;83.20;78.80;;;12.50;99.90;;;;;;4955136;28;20193;-76
2023/06/07 04:41:30;;;;;;;85.90;81.40;;;12.60;99.90;;;;;;4973814;28;20652;-74
2023/06/07 04:43:57;;;;;;;77.57;73.57;;;12.70;99.90;;;;;;4950182;28;20221;-75
2023/06/07 04:46:24;;;;;;;114.20;108.30;;;12.90;99.90;;;;;;4954066;28;20653;-74
2023/06/07 04:48:51;;;;;;;69.70;66.10;;;13.00;99.90;;;;;;4940719;28;20332;-74
2023/06/07 04:51:20;;;;;;;30.60;28.87;;;13.10;99.90;;;;;;4973308;28;20208;-74
2023/06/07 04:53:46;;;;;;;18.13;17.13;;;13.20;99.90;;;;;;4956083;28;20216;-73
2023/06/07 04:56:12;;;;;;;12.37;11.50;;;13.40;99.90;;;;;;4973295;28;20272;-73
2023/06/07 04:58:41;;;;;;;10.53;9.83;;;13.50;99.90;;;;;;4968524;28;20285;-74
2023/06/07 05:01:10;;;;;;;135.13;128.27;;;13.70;99.90;;;;;;4959979;28;20229;-74
2023/06/07 05:03:38;;;;;;;29.13;27.33;;;13.90;99.90;;;;;;4955351;28;20185;-75
2023/06/07 05:06:04;;;;;;;79.10;75.00;;;14.10;99.90;;;;;;4957385;28;20205;-74
2023/06/07 05:08:30;;;;;;;32.37;30.57;;;14.50;99.90;;;;;;4958485;28;20229;-75
2023/06/07 05:10:56;;;;;;;52.00;49.10;;;14.80;99.90;;;;;;4955519;28;20697;-75
2023/06/07 05:13:22;;;;;;;132.50;125.50;;;15.30;99.90;;;;;;4973043;28;20273;-75
2023/06/07 05:15:50;;;;;;;40.00;37.80;;;15.80;99.90;;;;;;4955074;28;20559;-74
2023/06/07 05:18:20;;;;;;;12.15;11.40;;;16.30;99.90;;;;;;4957429;28;20256;-74
2023/06/07 05:20:49;;;;;;;10.70;9.93;;;16.50;99.90;;;;;;4955067;28;20716;-74
2023/06/07 05:23:16;;;;;;;8.70;8.00;;;16.80;99.90;;;;;;4972799;28;20192;-75
2023/06/07 05:25:46;;;;;;;16.30;15.23;;;17.10;99.90;;;;;;4973136;28;20199;-74
2023/06/07 05:28:12;;;;;;;12.07;11.27;;;17.30;99.90;;;;;;4972195;28;20212;-75
2023/06/07 05:30:38;;;;;;;19.23;18.08;;;17.40;99.90;;;;;;4964379;28;20205;-75
2023/06/07 05:33:06;;;;;;;18.27;17.13;;;17.70;99.90;;;;;;4972669;28;20188;-77
2023/06/07 05:35:32;;;;;;;14.43;13.63;;;18.20;99.90;;;;;;4955151;28;20190;-75
2023/06/07 05:37:58;;;;;;;18.90;17.75;;;18.50;99.90;;;;;;4972031;28;20193;-75
2023/06/07 05:40:23;;;;;;;10.88;10.18;;;18.70;99.90;;;;;;4947173;28;20255;-76
2023/06/07 05:42:50;;;;;;;12.82;12.02;;;19.10;99.90;;;;;;4971563;28;20276;-76
2023/06/07 05:45:19;;;;;;;11.65;10.95;;;19.40;99.90;;;;;;4954918;28;20275;-76
2023/06/07 05:47:45;;;;;;;10.32;9.68;;;19.70;99.90;;;;;;4976830;28;20196;-77
2023/06/07 05:50:11;;;;;;;8.65;7.95;;;19.80;99.90;;;;;;4965905;28;20578;-76
2023/06/07 05:52:40;;;;;;;9.75;9.05;;;19.80;99.90;;;;;;4961455;28;20184;-77
2023/06/07 05:55:06;;;;;;;16.15;15.18;;;20.20;99.90;;;;;;4974751;28;20173;-77
2023/06/07 05:57:32;;;;;;;13.52;12.68;;;20.50;99.90;;;;;;4957108;28;20439;-77
2023/06/07 05:59:58;;;;;;;16.73;15.80;;;20.80;99.90;;;;;;4957819;28;20662;-75
2023/06/07 06:02:24;;;;;;;16.20;15.30;;;21.00;99.90;;;;;;4955347;28;20236;-74
2023/06/07 06:04:53;;;;;;;9.48;8.88;;;21.20;99.90;;;;;;4950394;28;20189;-74
2023/06/07 06:07:19;;;;;;;10.35;9.75;;;21.50;99.90;;;;;;4952308;28;20689;-77
2023/06/07 06:09:45;;;;;;;16.95;15.90;;;21.50;99.90;;;;;;4968921;28;20857;-77
2023/06/07 06:12:11;;;;;;;17.13;16.15;;;21.70;99.90;;;;;;4959237;28;20216;-77
2023/06/07 06:14:38;;;;;;;11.35;10.65;;;21.90;99.90;;;;;;4954671;28;20574;-77
2023/06/07 06:17:05;;;;;;;10.55;9.82;;;21.80;99.90;;;;;;4970980;28;20192;-77
2023/06/07 06:19:31;;;;;;;8.43;7.90;;;21.90;99.90;;;;;;4968571;28;20189;-77
2023/06/07 06:21:57;;;;;;;8.27;7.55;;;22.00;99.90;;;;;;4961682;28;20212;-77
2023/06/07 06:24:23;;;;;;;7.35;6.70;;;22.40;99.90;;;;;;4963791;28;20843;-74
2023/06/07 06:26:50;;;;;;;7.07;6.57;;;22.90;99.90;;;;;;4959420;28;20193;-76
2023/06/07 06:29:16;;;;;;;7.00;6.60;;;22.60;99.90;;;;;;4947327;28;20221;-77
2023/06/07 06:31:43;;;;;;;7.20;6.80;;;22.80;99.90;;;;;;4971149;28;20212;-77
2023/06/07 06:34:09;;;;;;;12.13;11.13;;;23.20;99.90;;;;;;4978134;28;20207;-72
2023/06/07 06:36:36;;;;;;;17.85;16.65;;;23.50;99.90;;;;;;4954919;28;20646;-71
2023/06/07 06:39:03;;;;;;;14.20;13.27;;;23.90;99.90;;;;;;4958549;28;20268;-71
2023/06/07 06:41:30;;;;;;;14.27;13.38;;;24.10;99.90;;;;;;4969362;28;20216;-70
2023/06/07 06:43:56;;;;;;;18.30;17.40;;;23.80;99.90;;;;;;4954391;28;20189;-70
2023/06/07 06:46:22;;;;;;;13.90;12.98;;;23.60;99.90;;;;;;4954368;28;20201;-70
2023/06/07 06:48:47;;;;;;;13.43;12.57;;;23.80;99.90;;;;;;4969616;28;20296;-69
2023/06/07 06:51:13;;;;;;;8.30;7.60;;;24.10;99.90;;;;;;4971154;28;20236;-70
2023/06/07 06:53:39;;;;;;;7.20;6.80;;;24.50;99.90;;;;;;4970346;28;20182;-70
2023/06/07 06:56:06;;;;;;;7.53;6.85;;;24.70;99.90;;;;;;4973513;28;20275;-75
2023/06/07 06:58:34;;;;;;;6.55;5.93;;;24.90;99.90;;;;;;4957891;28;20577;-74
2023/06/07 07:01:02;;;;;;;7.10;6.50;;;25.10;99.90;;;;;;4969531;28;20235;-74
2023/06/07 07:03:28;;;;;;;7.25;6.85;;;24.90;99.90;;;;;;4975500;28;20215;-74
2023/06/07 07:05:54;;;;;;;6.78;6.43;;;24.80;99.90;;;;;;4958198;28;20220;-74
2023/06/07 07:08:20;;;;;;;7.05;6.57;;;24.90;99.90;;;;;;4974135;28;20220;-74
2023/06/07 07:10:47;;;;;;;6.40;6.00;;;24.70;99.90;;;;;;4969326;28;20209;-75
2023/06/07 07:13:14;;;;;;;6.88;6.28;;;24.60;99.90;;;;;;4975349;28;20664;-74
2023/06/07 07:15:40;;;;;;;6.88;6.47;;;25.10;99.90;;;;;;4958009;28;20189;-74
2023/06/07 07:18:07;;;;;;;6.85;6.30;;;25.00;99.90;;;;;;4957743;28;20189;-73
2023/06/07 07:20:34;;;;;;;6.00;5.63;;;25.00;99.90;;;;;;4952033;28;20201;-72
2023/06/07 07:23:01;;;;;;;6.65;6.15;;;25.20;99.90;;;;;;4975131;28;20207;-74
2023/06/07 07:25:27;;;;;;;6.65;6.25;;;25.50;99.90;;;;;;4957733;28;20277;-74
2023/06/07 07:27:53;;;;;;;6.90;6.47;;;25.80;99.90;;;;;;4978291;28;20198;-74
2023/06/07 07:30:19;;;;;;;6.40;6.03;;;25.60;99.90;;;;;;4946578;28;20208;-74
2023/06/07 07:32:45;;;;;;;6.57;6.05;;;25.40;99.90;;;;;;4975097;28;20661;-74
2023/06/07 07:35:11;;;;;;;6.47;6.07;;;24.90;99.90;;;;;;4957633;28;20199;-74
2023/06/07 07:37:39;;;;;;;6.47;6.07;;;24.70;99.90;;;;;;4974289;28;20685;-75
2023/06/07 07:40:08;;;;;;;6.30;5.80;;;24.90;99.90;;;;;;4969208;28;20231;-76
2023/06/07 07:42:35;;;;;;;6.03;5.72;;;25.40;99.90;;;;;;4970104;28;20189;-75
2023/06/07 07:45:01;;;;;;;7.72;7.22;;;25.80;99.80;;;;;;4957393;28;20203;-76
2023/06/07 07:47:26;;;;;;;10.77;10.07;;;26.10;99.30;;;;;;4974391;28;20280;-75
2023/06/07 07:49:52;;;;;;;13.05;12.43;;;26.30;98.90;;;;;;4969221;28;20221;-75
2023/06/07 07:52:18;;;;;;;12.23;11.68;;;26.40;98.70;;;;;;4963231;28;20677;-75
2023/06/07 07:54:44;;;;;;;11.05;10.45;;;26.00;98.90;;;;;;4957145;28;20323;-75
2023/06/07 07:57:10;;;;;;;7.57;7.18;;;25.40;99.10;;;;;;4957321;28;20343;-74
2023/06/07 07:59:36;;;;;;;5.28;4.88;;;25.30;99.80;;;;;;4974433;28;20283;-76
2023/06/07 08:02:03;;;;;;;5.20;4.90;;;25.00;99.90;;;;;;4947566;28;20364;-75
2023/06/07 08:04:31;;;;;;;5.40;5.00;;;24.90;99.70;;;;;;4972766;28;20201;-75
2023/06/07 08:06:56;;;;;;;5.45;5.10;;;25.10;99.70;;;;;;4974610;28;20765;-75
2023/06/07 08:09:23;;;;;;;6.13;5.72;;;25.20;99.50;;;;;;4958840;28;20727;-75
2023/06/07 08:11:49;;;;;;;6.47;6.13;;;25.60;98.50;;;;;;4970649;28;20197;-75
2023/06/07 08:14:15;;;;;;;9.30;8.80;;;26.10;98.00;;;;;;4975114;28;20684;-75
2023/06/07 08:16:41;;;;;;;10.23;9.63;;;26.70;97.20;;;;;;4975697;28;20188;-76
2023/06/07 08:19:07;;;;;;;9.32;8.82;;;26.80;96.10;;;;;;4974296;28;20831;-75
2023/06/07 08:21:33;;;;;;;9.13;8.73;;;27.00;95.50;;;;;;4951762;28;20197;-75
2023/06/07 08:23:59;;;;;;;8.38;7.97;;;26.70;94.90;;;;;;4967808;28;20181;-75
2023/06/07 08:26:25;;;;;;;12.65;11.95;;;26.50;95.30;;;;;;4956946;28;20192;-75
2023/06/07 08:28:51;;;;;;;11.27;10.68;;;25.80;95.90;;;;;;4956300;28;20576;-75
2023/06/07 08:31:22;;;;;;;9.35;8.95;;;25.50;97.00;;;;;;4970885;28;20201;-75
2023/06/07 08:33:49;;;;;;;9.38;8.98;;;25.80;95.80;;;;;;4956398;28;20241;-75
2023/06/07 08:36:15;;;;;;;8.38;8.05;;;26.20;96.60;;;;;;4962162;28;20177;-75
2023/06/07 08:38:41;;;;;;;8.50;7.97;;;26.70;95.80;;;;;;4975557;28;20617;-73
2023/06/07 08:41:07;;;;;;;7.70;7.20;;;27.50;94.50;;;;;;4947439;28;20300;-73
2023/06/07 08:43:33;;;;;;;6.72;6.25;;;27.80;92.50;;;;;;4971601;28;20219;-76
2023/06/07 08:46:05;;;;;;;4.32;4.13;;;27.90;92.00;;;;;;4973739;28;20196;-74
2023/06/07 08:48:35;;;;;;;3.78;3.58;;;28.20;91.80;;;;;;4961949;28;20710;-74
2023/06/07 08:51:02;;;;;;;3.67;3.58;;;28.10;90.90;;;;;;4940044;28;20201;-75
2023/06/07 08:53:34;;;;;;;5.28;5.07;;;27.50;90.40;;;;;;4958949;28;20216;-74
2023/06/07 08:56:01;;;;;;;9.70;9.20;;;26.90;91.30;;;;;;4956052;28;20185;-76
2023/06/07 08:58:27;;;;;;;13.75;12.85;;;27.10;91.30;;;;;;4955887;28;20199;-76
2023/06/07 09:00:53;;;;;;;10.90;10.40;;;27.20;92.20;;;;;;4972766;28;20232;-74
2023/06/07 09:03:19;;;;;;;13.05;12.35;;;27.20;90.70;;;;;;4970250;28;20196;-74
2023/06/07 09:05:46;;;;;;;12.68;12.10;;;27.40;91.20;;;;;;4956820;28;20193;-75
2023/06/07 09:08:12;;;;;;;11.48;10.93;;;27.50;91.30;;;;;;4973102;28;20780;-74
2023/06/07 09:10:38;;;;;;;5.05;4.85;;;27.80;89.90;;;;;;4955585;28;20296;-74
2023/06/07 09:13:05;;;;;;;4.57;4.28;;;27.90;88.20;;;;;;4970078;28;20212;-73
2023/06/07 09:15:34;;;;;;;4.47;4.18;;;27.70;86.10;;;;;;4997277;23;20228;-78
2023/06/07 09:18:02;;;;;;;4.30;4.10;;;27.90;85.90;;;;;;4978483;28;20185;-76
2023/06/07 09:20:31;;;;;;;4.18;4.07;;;28.10;85.20;;;;;;4977730;28;20182;-78
2023/06/07 09:23:14;;;;;;;4.70;4.50;;;28.00;84.50;;;;;;4962015;28;20272;-78
2023/06/07 09:25:44;;;;;;;4.07;3.88;;;28.10;84.00;;;;;;4979191;28;20213;-78
2023/06/07 09:28:15;;;;;;;4.22;4.13;;;28.00;84.40;;;;;;4975357;28;20567;-78
2023/06/07 09:30:56;;;;;;;4.82;4.63;;;28.00;84.40;;;;;;4966614;28;20205;-78
2023/06/07 09:33:29;;;;;;;5.40;5.10;;;28.40;84.70;;;;;;4974197;28;20276;-77
2023/06/07 09:36:27;;;;;;;5.80;5.55;;;29.10;80.90;;;;;;4960221;28;20209;-77
2023/06/07 09:38:53;;;;;;;5.50;5.10;;;29.60;78.80;;;;;;4961300;28;20201;-78
2023/06/07 09:41:19;;;;;;;4.93;4.72;;;29.90;77.80;;;;;;4984700;28;20613;-78
2023/06/07 09:43:46;;;;;;;6.60;6.32;;;30.40;76.70;;;;;;4977143;28;20189;-76
2023/06/07 09:46:22;;;;;;;3.83;3.63;;;30.70;76.00;;;;;;4978940;28;20217;-78
2023/06/07 09:48:50;;;;;;;4.20;4.07;;;30.70;74.20;;;;;;4974999;28;20220;-78
2023/06/07 09:51:18;;;;;;;4.53;4.32;;;30.10;74.60;;;;;;4962789;28;20247;-78
2023/06/07 09:53:59;;;;;;;4.47;4.07;;;29.90;73.70;;;;;;4977246;28;20197;-78
2023/06/07 09:56:25;;;;;;;5.22;3.92;;;30.10;73.30;;;;;;4976194;28;20565;-77
2023/06/07 09:59:12;;;;;;;3.88;3.67;;;30.40;73.20;;;;;;4956216;28;20200;-77
2023/06/07 10:01:43;;;;;;;4.25;4.05;;;30.90;73.60;;;;;;4961954;28;20186;-76
2023/06/07 10:04:10;;;;;;;4.88;4.65;;;31.10;71.10;;;;;;4980241;28;20259;-78
2023/06/07 10:06:42;;;;;;;12.32;11.82;;;31.30;70.90;;;;;;4980262;28;20212;-77
2023/06/07 10:09:09;;;;;;;7.63;7.25;;;31.70;68.10;;;;;;4976459;28;20308;-78
2023/06/07 10:11:37;;;;;;;8.23;7.85;;;31.30;68.70;;;;;;4972852;28;20188;-76
2023/06/07 10:14:10;;;;;;;4.95;4.18;;;30.90;69.60;;;;;;4974732;28;20277;-77
2023/06/07 10:16:45;;;;;;;5.72;5.43;;;29.70;73.80;;;;;;4972705;28;20244;-76
2023/06/07 10:19:47;;;;;;;7.28;6.97;;;28.60;75.70;;;;;;4978651;28;20186;-77
2023/06/07 10:22:19;;;;;;;10.75;10.23;;;27.90;78.10;;;;;;4994388;28;20232;-76
2023/06/07 10:24:52;;;;;;;8.40;7.97;;;27.50;79.60;;;;;;4959436;28;20197;-78
2023/06/07 10:27:23;;;;;;;4.53;4.32;;;26.80;78.90;;;;;;4972798;28;20197;-77
2023/06/07 10:29:55;;;;;;;3.90;3.70;;;26.30;81.80;;;;;;4972740;28;20261;-78
2023/06/07 10:32:28;;;;;;;5.68;5.30;;;25.90;81.70;;;;;;4972110;28;20193;-77
2023/06/07 10:34:55;;;;;;;9.27;8.88;;;25.70;83.40;;;;;;4974662;28;20225;-77
2023/06/07 10:37:22;;;;;;;4.38;4.18;;;26.40;83.30;;;;;;4974824;28;20192;-77
2023/06/07 10:39:49;;;;;;;4.70;4.45;;;27.40;79.90;;;;;;4956402;28;20192;-79
2023/06/07 10:42:16;;;;;;;6.75;6.45;;;28.30;77.90;;;;;;4972130;28;20203;-78
2023/06/07 10:44:43;;;;;;;13.90;13.25;;;29.50;73.40;;;;;;4973533;28;20204;-77
2023/06/07 10:47:27;;;;;;;7.57;7.18;;;30.10;70.00;;;;;;4973256;28;20228;-77
2023/06/07 10:49:54;;;;;;;6.55;6.35;;;30.40;70.20;;;;;;4973703;28;20225;-77
2023/06/07 10:52:21;;;;;;;8.20;7.55;;;31.40;67.80;;;;;;4977177;28;20181;-78
2023/06/07 10:54:47;;;;;;;11.35;10.82;;;31.90;66.40;;;;;;4977692;28;20193;-79
2023/06/07 10:57:13;;;;;;;13.75;13.02;;;32.10;63.30;;;;;;4960108;28;20181;-79
2023/06/07 10:59:40;;;;;;;11.82;11.23;;;32.60;63.80;;;;;;4982907;28;20244;-78
2023/06/07 11:02:21;;;;;;;10.93;10.48;;;32.60;63.60;;;;;;4968877;28;20181;-78
2023/06/07 11:04:47;;;;;;;28.80;27.40;;;32.40;65.40;;;;;;4972661;28;20284;-78
2023/06/07 11:07:17;;;;;;;38.70;36.75;;;33.20;63.60;;;;;;4979247;28;20213;-78
2023/06/07 11:09:43;;;;;;;48.53;46.28;;;33.40;61.10;;;;;;4974659;28;20762;-76
2023/06/07 11:12:29;;;;;;;29.27;27.75;;;32.80;62.90;;;;;;4960726;28;20188;-77
2023/06/07 11:15:16;;;;;;;5.95;5.45;;;31.30;65.50;;;;;;4978110;28;20223;-77
2023/06/07 11:17:49;;;;;;;5.63;5.43;;;29.60;68.90;;;;;;4981435;28;20189;-77
2023/06/07 11:20:34;;;;;;;4.78;4.57;;;29.40;68.50;;;;;;4979372;28;20196;-76
2023/06/07 11:23:26;;;;;;;7.30;6.95;;;29.10;69.20;;;;;;4976701;28;20196;-76
2023/06/07 11:26:13;;;;;;;4.50;4.38;;;29.50;68.20;;;;;;4965481;28;20216;-77
2023/06/07 11:28:41;;;;;;;4.30;4.10;;;29.10;71.10;;;;;;4973896;28;20283;-77
2023/06/07 11:31:11;;;;;;;5.07;4.80;;;28.60;69.50;;;;;;4974263;28;20189;-77
2023/06/07 11:33:37;;;;;;;4.88;4.60;;;28.70;70.10;;;;;;4972552;28;20189;-76
2023/06/07 11:36:04;;;;;;;4.25;4.10;;;29.20;66.10;;;;;;4958502;28;20201;-76
2023/06/07 11:38:31;;;;;;;5.68;5.38;;;28.60;67.80;;;;;;4996037;28;20212;-76
2023/06/07 11:40:57;;;;;;;4.45;4.32;;;29.10;70.50;;;;;;4968519;28;20606;-77
2023/06/07 11:43:25;;;;;;;5.40;5.10;;;30.60;67.40;;;;;;4947906;28;20208;-77
2023/06/07 11:45:54;;;;;;;9.60;9.20;;;31.70;63.80;;;;;;4976346;28;20716;-77
2023/06/07 11:48:20;;;;;;;18.25;17.45;;;32.10;60.30;;;;;;4976871;28;20197;-77
2023/06/07 11:50:47;;;;;;;26.70;25.48;;;32.70;59.90;;;;;;4984175;28;20653;-77
2023/06/07 11:53:15;;;;;;;13.77;13.10;;;33.70;58.00;;;;;;4962362;28;20883;-77
2023/06/07 11:55:41;;;;;;;3.65;3.45;;;34.30;56.10;;;;;;4963387;28;20589;-76
2023/06/07 11:58:07;;;;;;;3.88;3.67;;;34.10;54.50;;;;;;4976102;28;20200;-76
2023/06/07 12:00:36;;;;;;;9.20;8.40;;;34.20;54.80;;;;;;4979753;28;20205;-77
2023/06/07 12:03:03;;;;;;;24.52;23.38;;;34.30;52.90;;;;;;4955020;28;20182;-77
2023/06/07 12:05:30;;;;;;;18.30;17.20;;;34.60;50.50;;;;;;4976508;28;20556;-77
2023/06/07 12:08:01;;;;;;;27.83;26.55;;;34.90;51.10;;;;;;4960562;28;20181;-76
2023/06/07 12:10:30;;;;;;;20.52;19.60;;;34.90;53.40;;;;;;4976491;28;20575;-77
2023/06/07 12:13:18;;;;;;;6.15;5.95;;;33.80;54.90;;;;;;4952557;28;20185;-77
2023/06/07 12:15:49;;;;;;;11.57;10.98;;;31.40;58.90;;;;;;4974972;28;20221;-76
2023/06/07 12:18:17;;;;;;;10.95;10.45;;;29.60;61.10;;;;;;4982527;28;20238;-78
2023/06/07 12:20:45;;;;;;;6.45;4.82;;;28.30;64.80;;;;;;4943352;28;20277;-77
2023/06/07 12:23:13;;;;;;;4.55;4.20;;;27.90;67.10;;;;;;4958704;28;20562;-77
2023/06/07 12:25:41;;;;;;;6.00;5.03;;;29.10;63.80;;;;;;4961438;28;20292;-77
2023/06/07 12:28:11;;;;;;;8.35;8.00;;;30.90;60.50;;;;;;4980142;28;20288;-79
2023/06/07 12:30:40;;;;;;;27.88;26.58;;;32.60;58.30;;;;;;4961319;28;20588;-78
2023/06/07 12:33:14;;;;;;;7.22;6.88;;;33.60;54.70;;;;;;4971233;28;20618;-78
2023/06/07 12:35:45;;;;;;;8.27;7.93;;;33.60;52.90;;;;;;4966773;28;20212;-78
2023/06/07 12:38:13;;;;;;;13.43;12.88;;;32.40;55.10;;;;;;4972548;28;20189;-78
2023/06/07 12:40:39;;;;;;;18.33;17.33;;;31.70;56.70;;;;;;4976789;28;20232;-78
2023/06/07 12:43:05;;;;;;;9.40;9.02;;;32.40;57.20;;;;;;4971917;28;20181;-78
2023/06/07 12:45:30;;;;;;;8.00;7.35;;;33.10;55.40;;;;;;4959540;28;20201;-78
2023/06/07 12:47:57;;;;;;;20.05;19.05;;;31.90;56.10;;;;;;4975359;28;20213;-77
2023/06/07 12:50:23;;;;;;;25.08;23.77;;;31.10;58.00;;;;;;4978450;28;20208;-77
2023/06/07 12:52:50;;;;;;;24.80;23.67;;;31.30;57.30;;;;;;4987818;28;20192;-76
2023/06/07 12:55:16;;;;;;;8.80;8.40;;;32.00;56.60;;;;;;5000398;28;20220;-77
2023/06/07 12:57:42;;;;;;;3.22;3.13;;;33.00;54.90;;;;;;4980145;28;20221;-77
2023/06/07 13:00:08;;;;;;;3.88;3.67;;;33.40;52.60;;;;;;4977428;28;20196;-77
2023/06/07 13:02:34;;;;;;;4.43;4.13;;;32.30;54.70;;;;;;4972262;28;20271;-77
2023/06/07 13:05:01;;;;;;;3.65;3.55;;;32.30;55.60;;;;;;4976113;28;20201;-77
2023/06/07 13:07:27;;;;;;;4.80;4.63;;;32.80;53.90;;;;;;4958042;28;20244;-77
2023/06/07 13:09:53;;;;;;;10.40;9.95;;;33.50;51.30;;;;;;4980039;28;20204;-79
2023/06/07 13:12:18;;;;;;;14.40;13.77;;;34.50;50.80;;;;;;4963122;28;20181;-78
2023/06/07 13:14:44;;;;;;;32.75;31.05;;;34.50;51.40;;;;;;4976785;28;20198;-80
2023/06/07 13:17:10;;;;;;;23.05;22.02;;;35.20;50.90;;;;;;4980508;28;20204;-78
2023/06/07 13:19:36;;;;;;;32.60;31.00;;;35.00;50.80;;;;;;4981670;28;20189;-77
2023/06/07 13:22:03;;;;;;;7.05;6.65;;;33.70;51.00;;;;;;4981757;28;20200;-78
2023/06/07 13:24:30;;;;;;;4.50;4.32;;;31.60;53.80;;;;;;4976440;28;20568;-81
2023/06/07 13:26:59;;;;;;;21.45;20.48;;;30.10;56.40;;;;;;4974917;28;20220;-77
2023/06/07 13:29:25;;;;;;;32.83;31.17;;;29.40;59.40;;;;;;4948535;28;20209;-79
2023/06/07 13:31:51;;;;;;;31.75;30.27;;;30.40;58.70;;;;;;4963472;28;20253;-79
2023/06/07 13:34:17;;;;;;;31.05;29.65;;;30.90;55.70;;;;;;4975324;28;20682;-78
2023/06/07 13:36:43;;;;;;;32.00;30.50;;;31.20;56.10;;;;;;4954915;28;20212;-79
2023/06/07 13:39:09;;;;;;;19.25;18.27;;;32.00;56.20;;;;;;4975892;28;20196;-79
2023/06/07 13:41:38;;;;;;;7.95;7.53;;;32.60;54.80;;;;;;4962552;28;20189;-79
2023/06/07 13:44:04;;;;;;;5.05;4.85;;;33.70;53.70;;;;;;4983821;28;20191;-78
2023/06/07 13:46:29;;;;;;;6.13;5.93;;;35.10;51.60;;;;;;4978026;28;20209;-78
2023/06/07 13:48:55;;;;;;;10.90;10.30;;;35.10;51.20;;;;;;4978957;28;20223;-78
2023/06/07 13:51:23;;;;;;;9.07;8.70;;;34.10;51.50;;;;;;4972743;28;20236;-78
2023/06/07 13:53:49;;;;;;;5.25;5.05;;;32.60;53.20;;;;;;4974844;28;20181;-77
2023/06/07 13:56:15;;;;;;;4.03;3.72;;;31.80;54.00;;;;;;4958573;28;20221;-78
2023/06/07 13:58:41;;;;;;;3.42;3.33;;;31.70;55.20;;;;;;4972959;28;20201;-76
2023/06/07 14:01:06;;;;;;;3.95;3.85;;;33.00;53.10;;;;;;4969226;28;20222;-77
2023/06/07 14:03:33;;;;;;;5.38;5.18;;;33.10;52.00;;;;;;4969409;28;20331;-78
2023/06/07 14:05:59;;;;;;;4.90;4.53;;;33.90;49.20;;;;;;4961968;28;20275;-79
2023/06/07 14:08:26;;;;;;;7.53;7.03;;;33.20;49.60;;;;;;4967026;28;20197;-78
2023/06/07 14:10:52;;;;;;;7.85;7.55;;;33.70;49.30;;;;;;4986673;28;20205;-78
2023/06/07 14:13:18;;;;;;;16.48;15.70;;;34.20;48.50;;;;;;4972590;28;20215;-80
2023/06/07 14:15:47;;;;;;;17.80;16.83;;;34.80;48.60;;;;;;4971754;28;20236;-78
2023/06/07 14:18:14;;;;;;;11.95;11.45;;;35.10;47.20;;;;;;4971241;28;20197;-78
2023/06/07 14:20:39;;;;;;;8.00;7.70;;;35.80;46.60;;;;;;4952952;28;20186;-78
2023/06/07 14:23:06;;;;;;;6.45;6.25;;;35.90;44.00;;;;;;4955752;28;20657;-78
2023/06/07 14:25:32;;;;;;;3.38;3.28;;;36.00;44.20;;;;;;4972248;28;20260;-78
2023/06/07 14:27:58;;;;;;;5.90;5.53;;;36.40;43.20;;;;;;4972697;28;20189;-78
2023/06/07 14:30:24;;;;;;;4.50;4.15;;;35.70;44.10;;;;;;4961911;28;20764;-78
2023/06/07 14:32:49;;;;;;;5.10;4.90;;;35.60;44.40;;;;;;4980517;28;20196;-77
2023/06/07 14:35:15;;;;;;;5.05;4.90;;;36.10;44.30;;;;;;4979595;28;20297;-78
2023/06/07 14:37:41;;;;;;;9.23;8.85;;;35.90;44.40;;;;;;4978210;28;20672;-78
2023/06/07 14:40:08;;;;;;;10.40;9.90;;;35.20;45.00;;;;;;4972939;28;20204;-77
2023/06/07 14:42:34;;;;;;;8.30;8.00;;;35.10;44.90;;;;;;4979923;28;20200;-77
2023/06/07 14:45:00;;;;;;;5.85;5.45;;;35.40;44.80;;;;;;4981756;28;20699;-78
2023/06/07 14:47:26;;;;;;;3.00;2.90;;;35.70;44.10;;;;;;4978966;28;20199;-79
2023/06/07 14:49:52;;;;;;;3.15;3.05;;;36.20;43.50;;;;;;4979008;28;20208;-78
2023/06/07 14:52:19;;;;;;;3.30;2.72;;;36.00;44.20;;;;;;4963288;28;20181;-79
2023/06/07 14:54:44;;;;;;;5.43;5.13;;;36.50;44.90;;;;;;4981686;28;20459;-79
2023/06/07 14:57:11;;;;;;;2.80;2.53;;;36.60;42.90;;;;;;4985283;28;20189;-79
2023/06/07 14:59:41;;;;;;;3.30;3.20;;;36.40;44.90;;;;;;4958724;28;20192;-78
2023/06/07 15:02:12;;;;;;;11.27;10.77;;;36.90;43.30;;;;;;4977929;28;20193;-77
2023/06/07 15:04:38;;;;;;;17.35;16.40;;;37.30;39.00;;;;;;4974547;28;20197;-77
2023/06/07 15:07:05;;;;;;;13.80;13.18;;;36.90;38.00;;;;;;4975366;28;20189;-77
2023/06/07 15:09:32;;;;;;;11.23;10.70;;;36.80;38.70;;;;;;4976292;28;20222;-78
2023/06/07 15:11:59;;;;;;;16.77;15.88;;;37.30;38.40;;;;;;4957703;28;20181;-78
2023/06/07 15:14:25;;;;;;;9.10;8.50;;;36.50;39.50;;;;;;4976469;28;20243;-79
2023/06/07 15:16:51;;;;;;;9.93;9.52;;;36.00;39.80;;;;;;5007077;23;20227;-73
2023/06/07 15:19:17;;;;;;;6.25;5.75;;;36.00;39.30;;;;;;4995302;28;20686;-73
2023/06/07 15:21:43;;;;;;;6.40;5.72;;;35.60;41.10;;;;;;4993478;28;20180;-73
2023/06/07 15:24:09;;;;;;;7.00;6.70;;;35.60;41.10;;;;;;4995174;28;20571;-73
2023/06/07 15:26:35;;;;;;;5.75;5.55;;;35.40;40.10;;;;;;4980984;28;20216;-73
2023/06/07 15:29:00;;;;;;;3.92;3.78;;;35.20;40.80;;;;;;4974766;28;20285;-72
2023/06/07 15:31:26;;;;;;;3.00;2.80;;;34.50;41.40;;;;;;4973827;28;20651;-73
2023/06/07 15:33:52;;;;;;;5.47;5.15;;;34.10;42.50;;;;;;4957639;28;20200;-72
2023/06/07 15:36:18;;;;;;;3.00;2.85;;;34.30;43.90;;;;;;4957772;28;20231;-73
2023/06/07 15:38:45;;;;;;;3.22;2.85;;;34.40;42.50;;;;;;4957250;28;20653;-72
2023/06/07 15:41:13;;;;;;;5.30;5.03;;;35.20;42.20;;;;;;4956735;28;20184;-73